createdAt,value
2022-09-20T00:00:41.334Z,12.90
2022-09-20T00:03:15.411Z,21.02
2022-09-20T00:05:48.175Z,7.90
2022-09-20T00:08:20.140Z,9.27
2022-09-20T00:10:53.571Z,16.02
2022-09-20T00:13:25.651Z,11.93
2022-09-20T00:15:57.887Z,15.27
2022-09-20T00:18:30.179Z,6.45
2022-09-20T00:21:02.594Z,7.97
2022-09-20T00:23:36.526Z,14.65
2022-09-20T00:26:08.492Z,6.25
2022-09-20T00:28:41.659Z,9.98
2022-09-20T00:31:14.671Z,16.35
2022-09-20T00:34:05.685Z,14.48
2022-09-20T00:36:37.696Z,12.93
2022-09-20T00:39:12.842Z,10.43
2022-09-20T00:41:45.630Z,13.52
2022-09-20T00:44:58.010Z,10.32
2022-09-20T00:47:43.801Z,16.42
2022-09-20T00:50:43.424Z,11.07
2022-09-20T00:53:26.578Z,16.40
2022-09-20T00:56:09.014Z,12.73
2022-09-20T00:59:06.940Z,8.75
2022-09-20T01:01:39.270Z,15.93
2022-09-20T01:04:14.956Z,13.65
2022-09-20T01:06:48.132Z,9.77
2022-09-20T01:09:20.211Z,9.77
2022-09-20T01:11:55.753Z,12.50
2022-09-20T01:14:27.894Z,17.58
2022-09-20T01:17:04.618Z,12.77
2022-09-20T01:20:18.647Z,9.77
2022-09-20T01:23:02.351Z,9.25
2022-09-20T01:26:08.092Z,10.98
2022-09-20T01:28:42.494Z,7.30
2022-09-20T01:31:36.040Z,7.25
2022-09-20T01:34:48.848Z,5.88
2022-09-20T01:38:31.531Z,7.35
2022-09-20T01:41:18.216Z,6.68
2022-09-20T01:44:11.154Z,5.70
2022-09-20T01:46:44.189Z,6.82
2022-09-20T01:49:51.115Z,8.02
2022-09-20T01:52:56.187Z,2.67
2022-09-20T01:55:44.182Z,5.63
2022-09-20T01:58:24.910Z,4.15
2022-09-20T02:01:58.781Z,2.83
2022-09-20T02:05:11.097Z,3.90
2022-09-20T02:08:01.762Z,1.48
2022-09-20T02:11:12.610Z,2.03
2022-09-20T02:14:29.997Z,10.40
2022-09-20T02:17:41.556Z,7.25
2022-09-20T02:20:27.356Z,6.78
2022-09-20T02:23:29.927Z,3.97
2022-09-20T02:26:28.115Z,2.35
2022-09-20T02:29:15.916Z,3.60
2022-09-20T02:32:29.560Z,7.50
2022-09-20T02:35:30.688Z,4.72
2022-09-20T02:38:49.568Z,6.78
2022-09-20T02:41:42.515Z,5.82
2022-09-20T02:44:39.042Z,11.55
2022-09-20T02:47:36.269Z,9.48
2022-09-20T02:50:41.554Z,7.43
2022-09-20T02:53:35.188Z,10.77
2022-09-20T02:56:46.089Z,10.98
2022-09-20T02:59:39.461Z,21.90
2022-09-20T03:02:57.445Z,8.38
2022-09-20T03:06:49.486Z,15.80
2022-09-20T03:09:42.440Z,11.98
2022-09-20T03:12:33.701Z,21.83
2022-09-20T03:15:17.372Z,18.17
2022-09-20T03:18:08.338Z,19.38
2022-09-20T03:20:59.897Z,12.75
2022-09-20T03:23:50.491Z,8.30
2022-09-20T03:26:45.404Z,12.52
2022-09-20T03:29:47.396Z,17.33
2022-09-20T03:32:44.993Z,20.45
2022-09-20T03:36:30.007Z,14.65
2022-09-20T03:39:48.776Z,14.45
2022-09-20T03:42:27.059Z,8.82
2022-09-20T03:45:30.028Z,14.05
2022-09-20T03:48:37.098Z,18.25
2022-09-20T03:51:36.510Z,19.85
2022-09-20T03:54:48.924Z,10.13
2022-09-20T03:57:47.023Z,11.27
2022-09-20T04:00:37.223Z,20.08
2022-09-20T04:03:41.807Z,13.85
2022-09-20T04:07:13.184Z,32.20
2022-09-20T04:10:19.074Z,15.38
2022-09-20T04:12:53.632Z,10.70
2022-09-20T04:15:37.825Z,13.68
2022-09-20T04:18:58.329Z,25.90
2022-09-20T04:24:28.908Z,13.18
2022-09-20T04:29:58.389Z,15.10
2022-09-20T04:32:44.398Z,11.93
2022-09-20T04:35:58.272Z,13.05
2022-09-20T04:38:31.049Z,17.45
2022-09-20T04:41:31.323Z,23.80
2022-09-20T04:44:38.913Z,12.70
2022-09-20T04:47:35.873Z,16.17
2022-09-20T04:50:31.817Z,21.50
2022-09-20T04:53:40.553Z,22.92
2022-09-20T04:56:22.168Z,15.95
2022-09-20T04:59:08.253Z,14.95
2022-09-20T05:02:03.697Z,14.90
2022-09-20T05:05:01.995Z,17.45
2022-09-20T05:08:22.005Z,24.75
2022-09-20T05:11:42.420Z,21.45
2022-09-20T05:14:51.688Z,9.13
2022-09-20T05:18:01.425Z,17.55
2022-09-20T05:20:49.737Z,14.77
2022-09-20T05:23:57.159Z,17.02
2022-09-20T05:27:09.011Z,9.80
2022-09-20T05:29:51.327Z,9.07
2022-09-20T05:32:34.007Z,19.02
2022-09-20T05:35:29.622Z,15.85
2022-09-20T05:38:14.149Z,20.83
2022-09-20T05:41:35.316Z,17.83
2022-09-20T05:44:31.214Z,11.63
2022-09-20T05:47:19.281Z,15.13
2022-09-20T05:50:55.252Z,16.00
2022-09-20T05:53:42.497Z,16.38
2022-09-20T05:56:55.677Z,24.02
2022-09-20T05:59:47.918Z,21.42
2022-09-20T06:02:38.563Z,18.85
2022-09-20T06:05:35.069Z,12.88
2022-09-20T06:08:24.744Z,17.40
2022-09-20T06:11:20.305Z,10.73
2022-09-20T06:14:15.265Z,15.68
2022-09-20T06:17:18.998Z,12.13
2022-09-20T06:20:00.444Z,21.38
2022-09-20T06:22:47.237Z,12.45
2022-09-20T06:25:24.962Z,14.48
2022-09-20T06:28:13.765Z,11.05
2022-09-20T06:30:53.555Z,18.00
2022-09-20T06:33:28.491Z,13.13
2022-09-20T06:36:50.721Z,16.17
2022-09-20T06:40:10.841Z,11.52
2022-09-20T06:42:44.613Z,10.82
2022-09-20T06:45:16.514Z,13.60
2022-09-20T06:47:48.561Z,19.40
2022-09-20T06:50:20.513Z,17.67
2022-09-20T06:52:53.715Z,14.35
2022-09-20T06:55:31.188Z,13.50
2022-09-20T06:58:03.893Z,12.45
2022-09-20T07:00:36.234Z,18.48
2022-09-20T07:03:08.650Z,13.95
2022-09-20T07:05:40.849Z,7.97
2022-09-20T07:08:13.894Z,23.42
2022-09-20T07:10:45.831Z,11.35
2022-09-20T07:13:19.325Z,12.52
2022-09-20T07:15:51.275Z,16.40
2022-09-20T07:18:23.212Z,18.10
2022-09-20T07:20:58.848Z,16.98
2022-09-20T07:23:31.388Z,16.40
2022-09-20T07:26:03.677Z,17.85
2022-09-20T07:28:35.782Z,14.07
2022-09-20T07:31:07.760Z,10.75
2022-09-20T07:33:39.694Z,6.57
2022-09-20T07:36:12.506Z,14.00
2022-09-20T07:38:50.216Z,18.77
2022-09-20T07:41:24.726Z,14.45
2022-09-20T07:44:16.777Z,17.75
2022-09-20T07:46:59.772Z,16.13
2022-09-20T07:49:31.661Z,21.60
2022-09-20T07:52:04.312Z,14.55
2022-09-20T07:54:36.421Z,16.17
2022-09-20T07:57:08.460Z,12.18
2022-09-20T07:59:40.423Z,11.40
2022-09-20T08:02:16.045Z,11.25
2022-09-20T08:04:50.058Z,13.43
2022-09-20T08:07:22.038Z,7.25
2022-09-20T08:09:54.613Z,13.77
2022-09-20T08:15:21.512Z,12.05
2022-09-20T08:17:53.505Z,15.07
2022-09-20T08:20:25.506Z,7.90
2022-09-20T08:23:22.031Z,7.22
2022-09-20T08:25:51.302Z,10.63
2022-09-20T08:28:23.299Z,10.85
2022-09-20T08:31:07.451Z,7.35
2022-09-20T08:33:42.753Z,19.40
2022-09-20T08:36:21.335Z,7.15
2022-09-20T08:42:14.736Z,6.55
2022-09-20T08:45:00.523Z,12.57
2022-09-20T08:47:50.050Z,6.32
2022-09-20T08:50:22.820Z,12.63
2022-09-20T08:53:00.080Z,6.40
2022-09-20T08:55:37.563Z,5.78
2022-09-20T08:58:12.112Z,5.78
2022-09-20T09:00:47.054Z,6.20
2022-09-20T09:03:19.573Z,6.90
2022-09-20T09:05:58.216Z,9.20
2022-09-20T09:08:38.060Z,4.70
2022-09-20T09:11:16.002Z,4.72
2022-09-20T09:13:55.926Z,5.70
2022-09-20T09:16:35.800Z,6.15
2022-09-20T09:19:33.654Z,2.97
2022-09-20T09:22:06.519Z,6.15
2022-09-20T09:24:38.494Z,10.27
2022-09-20T09:27:19.993Z,10.30
2022-09-20T09:29:55.291Z,3.90
2022-09-20T09:32:33.011Z,4.18
2022-09-20T09:35:26.895Z,5.03
2022-09-20T09:38:02.728Z,7.80
2022-09-20T09:40:35.070Z,6.15
2022-09-20T09:43:20.354Z,5.32
2022-09-20T09:45:52.425Z,5.53
2022-09-20T09:48:28.125Z,7.82
2022-09-20T09:51:19.512Z,5.72
2022-09-20T09:53:51.805Z,4.70
2022-09-20T09:56:59.800Z,9.30
2022-09-20T09:59:50.228Z,10.40
2022-09-20T10:05:41.248Z,10.80
2022-09-20T10:08:35.485Z,4.15
2022-09-20T10:11:49.166Z,7.50
2022-09-20T10:14:46.261Z,10.02
2022-09-20T10:18:17.326Z,6.38
2022-09-20T10:21:33.269Z,5.35
2022-09-20T10:24:37.010Z,7.10
2022-09-20T10:27:33.807Z,9.57
2022-09-20T10:30:23.975Z,8.63
2022-09-20T10:33:02.904Z,5.20
2022-09-20T10:36:01.954Z,6.35
2022-09-20T10:38:48.962Z,8.60
2022-09-20T10:42:01.449Z,6.82
2022-09-20T10:45:24.411Z,4.82
2022-09-20T10:48:13.827Z,9.43
2022-09-20T10:51:10.393Z,5.53
2022-09-20T10:54:14.221Z,9.90
2022-09-20T10:56:56.398Z,3.78
2022-09-20T11:00:22.352Z,3.65
2022-09-20T11:03:50.463Z,4.82
2022-09-20T11:07:15.925Z,1.83
2022-09-20T11:09:58.554Z,4.38
2022-09-20T11:12:50.980Z,3.30
2022-09-20T11:15:59.739Z,2.08
2022-09-20T11:18:48.475Z,5.65
2022-09-20T11:21:39.092Z,4.65
2022-09-20T11:24:51.628Z,6.05
2022-09-20T11:27:56.285Z,4.30
2022-09-20T11:33:41.333Z,5.68
2022-09-20T11:36:26.210Z,5.22
2022-09-20T11:39:12.220Z,7.15
2022-09-20T11:41:44.962Z,3.85
2022-09-20T11:44:20.181Z,4.88
2022-09-20T11:47:05.245Z,5.07
2022-09-20T11:50:53.269Z,8.30
2022-09-20T11:53:48.566Z,4.25
2022-09-20T11:56:29.194Z,11.38
2022-09-20T11:59:05.789Z,8.13
2022-09-20T12:01:43.669Z,4.63
2022-09-20T12:04:32.347Z,8.10
2022-09-20T12:07:25.857Z,5.70
2022-09-20T12:10:20.846Z,4.35
2022-09-20T12:13:18.452Z,5.07
2022-09-20T12:16:09.906Z,4.95
2022-09-20T12:18:56.758Z,4.65
2022-09-20T12:21:28.816Z,9.63
2022-09-20T12:24:15.501Z,9.88
2022-09-20T12:26:48.602Z,6.55
2022-09-20T12:29:23.680Z,6.88
2022-09-20T12:31:58.486Z,8.85
2022-09-20T12:34:36.935Z,5.53
2022-09-20T12:37:10.365Z,9.10
2022-09-20T12:39:55.671Z,4.55
2022-09-20T12:42:32.334Z,4.53
2022-09-20T12:45:17.093Z,4.15
2022-09-20T12:47:55.082Z,4.47
2022-09-20T12:50:46.838Z,5.85
2022-09-20T12:53:18.865Z,3.95
2022-09-20T12:56:06.761Z,7.45
2022-09-20T12:58:53.302Z,4.35
2022-09-20T13:01:25.235Z,6.03
2022-09-20T13:04:40.407Z,4.68
2022-09-20T13:07:43.389Z,5.47
2022-09-20T13:10:27.560Z,6.60
2022-09-20T13:13:14.188Z,14.05
2022-09-20T13:15:53.560Z,8.63
2022-09-20T13:18:27.892Z,6.03
2022-09-20T13:21:06.475Z,4.97
2022-09-20T13:23:51.525Z,7.88
2022-09-20T13:26:33.548Z,5.88
2022-09-20T13:29:09.794Z,5.32
2022-09-20T13:31:41.696Z,6.97
2022-09-20T13:34:25.977Z,6.78
2022-09-20T13:36:59.503Z,4.18
2022-09-20T13:39:36.299Z,19.50
2022-09-20T13:42:19.392Z,9.50
2022-09-20T13:44:51.952Z,14.30
2022-09-20T13:47:26.483Z,11.10
2022-09-20T13:50:35.188Z,9.95
2022-09-20T13:53:39.328Z,6.15
2022-09-20T13:56:26.190Z,7.80
2022-09-20T13:59:05.288Z,4.30
2022-09-20T14:01:48.347Z,5.70
2022-09-20T14:04:26.365Z,9.05
2022-09-20T14:06:59.892Z,12.13
2022-09-20T14:09:35.873Z,4.65
2022-09-20T14:12:11.669Z,5.82
2022-09-20T14:14:44.250Z,4.95
2022-09-20T14:17:19.398Z,8.52
2022-09-20T14:19:57.747Z,5.20
2022-09-20T14:22:29.938Z,3.78
2022-09-20T14:25:23.169Z,5.50
2022-09-20T14:28:19.992Z,12.05
2022-09-20T14:30:52.135Z,5.97
2022-09-20T14:33:24.553Z,11.30
2022-09-20T14:35:56.466Z,4.85
2022-09-20T14:38:28.683Z,11.88
2022-09-20T14:41:00.801Z,4.53
2022-09-20T14:43:35.782Z,9.27
2022-09-20T14:46:16.798Z,7.53
2022-09-20T14:48:49.049Z,3.42
2022-09-20T14:51:25.603Z,10.77
2022-09-20T14:54:25.557Z,17.58
2022-09-20T14:56:58.993Z,7.05
2022-09-20T14:59:43.124Z,5.40
2022-09-20T15:02:16.196Z,4.63
2022-09-20T15:04:59.487Z,5.32
2022-09-20T15:07:31.590Z,4.60
2022-09-20T15:10:05.148Z,4.10
2022-09-20T15:12:37.052Z,8.88
2022-09-20T15:15:17.787Z,6.55
2022-09-20T15:17:49.710Z,8.13
2022-09-20T15:20:24.592Z,6.20
2022-09-20T15:22:58.051Z,11.27
2022-09-20T15:25:30.181Z,6.68
2022-09-20T15:28:02.384Z,6.88
2022-09-20T15:30:34.385Z,6.97
2022-09-20T15:33:06.335Z,7.57
2022-09-20T15:35:40.377Z,9.25
2022-09-20T15:38:14.077Z,4.68
2022-09-20T15:40:49.142Z,5.18
2022-09-20T15:43:26.322Z,11.60
2022-09-20T15:46:01.999Z,11.00
2022-09-20T15:48:34.008Z,5.50
2022-09-20T15:51:08.662Z,12.82
2022-09-20T15:53:48.729Z,12.65
2022-09-20T15:56:24.008Z,8.70
2022-09-20T15:59:05.409Z,8.75
2022-09-20T16:01:43.850Z,9.77
2022-09-20T16:04:21.383Z,5.85
2022-09-20T16:06:54.196Z,8.15
2022-09-20T16:09:26.105Z,6.95
2022-09-20T16:12:00.366Z,6.93
2022-09-20T16:14:32.342Z,8.00
2022-09-20T16:17:04.537Z,5.63
2022-09-20T16:19:38.429Z,5.75
2022-09-20T16:22:12.620Z,7.22
2022-09-20T16:24:44.809Z,5.20
2022-09-20T16:27:18.493Z,4.72
2022-09-20T16:29:50.498Z,11.85
2022-09-20T16:32:22.436Z,7.38
2022-09-20T16:34:55.028Z,11.75
2022-09-20T16:37:32.858Z,11.55
2022-09-20T16:40:05.385Z,9.63
2022-09-20T16:42:38.176Z,14.45
2022-09-20T16:45:10.457Z,6.65
2022-09-20T16:47:42.444Z,7.38
2022-09-20T16:50:14.861Z,8.93
2022-09-20T16:52:47.300Z,11.55
2022-09-20T16:55:20.759Z,13.52
2022-09-20T16:57:52.754Z,10.85
2022-09-20T17:00:25.035Z,11.35
2022-09-20T17:02:56.977Z,6.78
2022-09-20T17:05:29.516Z,12.77
2022-09-20T17:08:01.775Z,6.75
2022-09-20T17:10:33.674Z,7.00
2022-09-20T17:13:07.565Z,11.73
2022-09-20T17:15:39.955Z,7.60
2022-09-20T17:18:15.456Z,7.93
2022-09-20T17:20:49.388Z,8.20
2022-09-20T17:23:21.400Z,7.28
2022-09-20T17:26:06.937Z,10.90
2022-09-20T17:28:44.240Z,13.50
2022-09-20T17:31:19.447Z,10.30
2022-09-20T17:33:52.220Z,12.65
2022-09-20T17:36:24.709Z,12.60
2022-09-20T17:39:03.838Z,20.38
2022-09-20T17:41:37.510Z,18.40
2022-09-20T17:44:10.424Z,20.40
2022-09-20T17:46:45.875Z,21.23
2022-09-20T17:49:20.611Z,14.27
2022-09-20T17:51:54.972Z,13.10
2022-09-20T17:54:26.898Z,14.05
2022-09-20T17:56:58.799Z,8.63
2022-09-20T17:59:30.966Z,10.88
2022-09-20T18:02:02.937Z,9.98
2022-09-20T18:04:35.059Z,12.18
2022-09-20T18:07:07.197Z,18.80
2022-09-20T18:09:39.166Z,18.13
2022-09-20T18:12:16.665Z,18.65
2022-09-20T18:14:50.261Z,21.23
2022-09-20T18:17:22.152Z,20.77
2022-09-20T18:19:54.133Z,13.73
2022-09-20T18:22:26.060Z,16.10
2022-09-20T18:24:57.995Z,15.05
2022-09-20T18:27:30.735Z,10.40
2022-09-20T18:30:02.856Z,16.67
2022-09-20T18:32:34.858Z,8.82
2022-09-20T18:35:07.234Z,12.63
2022-09-20T18:37:39.267Z,12.93
2022-09-20T18:40:11.453Z,14.30
2022-09-20T18:42:43.540Z,10.27
2022-09-20T18:45:17.631Z,14.00
2022-09-20T18:47:50.419Z,19.35
2022-09-20T18:50:24.569Z,15.88
2022-09-20T18:52:59.112Z,17.83
2022-09-20T18:55:31.468Z,12.38
2022-09-20T18:58:03.661Z,16.85
2022-09-20T19:00:36.010Z,17.17
2022-09-20T19:03:44.925Z,21.25
2022-09-20T19:06:20.360Z,18.13
2022-09-20T19:09:08.587Z,18.83
2022-09-20T19:11:48.924Z,19.85
2022-09-20T19:14:52.690Z,14.70
2022-09-20T19:17:40.407Z,20.10
2022-09-20T19:20:32.703Z,17.52
2022-09-20T19:23:19.318Z,19.65
2022-09-20T19:26:22.150Z,16.70
2022-09-20T19:28:58.022Z,23.65
2022-09-20T19:31:32.958Z,17.60
2022-09-20T19:34:16.764Z,10.52
2022-09-20T19:36:58.255Z,18.00
2022-09-20T19:40:19.015Z,29.88
2022-09-20T19:43:04.890Z,26.08
2022-09-20T19:45:48.870Z,16.92
2022-09-20T19:48:24.549Z,20.98
2022-09-20T19:50:57.811Z,19.77
2022-09-20T19:53:30.320Z,10.77
2022-09-20T19:56:26.240Z,15.27
2022-09-20T19:58:58.565Z,18.90
2022-09-20T20:01:31.379Z,10.65
2022-09-20T20:04:03.895Z,11.75
2022-09-20T20:07:07.728Z,15.50
2022-09-20T20:10:05.931Z,11.18
2022-09-20T20:12:55.651Z,10.27
2022-09-20T20:15:42.868Z,13.77
2022-09-20T20:18:34.379Z,15.85
2022-09-20T20:21:34.266Z,13.27
2022-09-20T20:24:21.859Z,16.67
2022-09-20T20:26:53.879Z,14.07
2022-09-20T20:29:25.883Z,16.15
2022-09-20T20:31:57.791Z,20.17
2022-09-20T20:34:30.278Z,18.95
2022-09-20T20:37:02.208Z,18.50
2022-09-20T20:39:34.402Z,12.50
2022-09-20T20:42:06.744Z,14.43
2022-09-20T20:44:38.852Z,18.88
2022-09-20T20:47:11.469Z,12.52
2022-09-20T20:49:43.625Z,18.30
2022-09-20T20:52:15.538Z,17.23
2022-09-20T20:54:48.432Z,15.85
2022-09-20T20:57:20.576Z,11.73
2022-09-20T20:59:53.132Z,18.00
2022-09-20T21:02:25.196Z,19.55
2022-09-20T21:04:57.306Z,17.02
2022-09-20T21:07:29.308Z,19.35
2022-09-20T21:10:01.851Z,17.70
2022-09-20T21:12:33.774Z,19.85
2022-09-20T21:15:06.604Z,24.30
2022-09-20T21:17:38.528Z,14.25
2022-09-20T21:20:10.708Z,22.77
2022-09-20T21:22:42.623Z,16.10
2022-09-20T21:25:14.591Z,14.23
2022-09-20T21:27:46.589Z,23.10
2022-09-20T21:30:18.612Z,17.88
2022-09-20T21:32:55.807Z,16.90
2022-09-20T21:35:27.869Z,17.98
2022-09-20T21:37:59.905Z,16.33
2022-09-20T21:40:31.959Z,19.92
2022-09-20T21:43:04.108Z,23.88
2022-09-20T21:45:40.429Z,14.77
2022-09-20T21:48:12.420Z,18.48
2022-09-20T21:50:44.392Z,22.10
2022-09-20T21:53:18.151Z,20.48
2022-09-20T21:55:56.092Z,21.52
2022-09-20T21:58:28.554Z,16.80
2022-09-20T22:01:11.817Z,20.48
2022-09-20T22:03:46.863Z,15.82
2022-09-20T22:06:28.154Z,21.48
2022-09-20T22:09:03.832Z,22.05
2022-09-20T22:11:39.356Z,23.55
2022-09-20T22:14:13.120Z,25.23
2022-09-20T22:16:47.336Z,15.60
2022-09-20T22:19:20.422Z,20.45
2022-09-20T22:21:52.473Z,18.23
2022-09-20T22:24:24.957Z,15.93
2022-09-20T22:26:56.953Z,16.08
2022-09-20T22:29:28.988Z,14.70
2022-09-20T22:32:01.068Z,17.95
2022-09-20T22:34:32.985Z,16.48
2022-09-20T22:37:04.918Z,17.60
2022-09-20T22:39:36.848Z,15.50
2022-09-20T22:42:08.832Z,17.02
2022-09-20T22:44:40.822Z,20.70
2022-09-20T22:47:12.793Z,18.35
2022-09-20T22:49:44.814Z,17.63
2022-09-20T22:52:17.006Z,13.48
2022-09-20T22:54:48.915Z,19.17
2022-09-20T22:57:20.921Z,11.85
2022-09-20T22:59:52.913Z,18.30
2022-09-20T23:02:25.028Z,21.20
2022-09-20T23:04:56.969Z,15.93
2022-09-20T23:07:28.903Z,18.85
2022-09-20T23:10:00.843Z,13.07
2022-09-20T23:12:32.981Z,16.00
2022-09-20T23:15:07.057Z,18.25
2022-09-20T23:17:42.061Z,17.77
2022-09-20T23:20:14.472Z,13.43
2022-09-20T23:22:46.399Z,12.70
2022-09-20T23:25:18.332Z,20.65
2022-09-20T23:27:50.278Z,15.90
2022-09-20T23:30:22.238Z,11.95
2022-09-20T23:32:54.589Z,16.90
2022-09-20T23:35:28.817Z,14.35
2022-09-20T23:38:01.044Z,17.38
2022-09-20T23:40:34.065Z,21.80
2022-09-20T23:43:06.194Z,17.45
2022-09-20T23:45:40.236Z,18.45
2022-09-20T23:48:12.293Z,13.68
2022-09-20T23:50:44.468Z,19.70
2022-09-20T23:53:16.605Z,18.17
2022-09-20T23:55:48.532Z,13.27
2022-09-20T23:58:21.096Z,15.70
